sensor_id;sensor_type;location;lat;lon;timestamp;pressure;altitude;pressure_sealevel;temperature;humidity
58686;BME280;44465;53.206;-6.106;2022-08-25T00:00:16;101824.19;;;24.31;49.01
58686;BME280;44465;53.206;-6.106;2022-08-25T00:02:42;101811.44;;;24.35;49.17
58686;BME280;44465;53.206;-6.106;2022-08-25T00:05:07;101812.13;;;24.38;49.30
58686;BME280;44465;53.206;-6.106;2022-08-25T00:07:33;101820.22;;;24.38;48.98
58686;BME280;44465;53.206;-6.106;2022-08-25T00:09:59;101819.25;;;24.39;49.13
58686;BME280;44465;53.206;-6.106;2022-08-25T00:12:24;101814.84;;;24.38;48.88
58686;BME280;44465;53.206;-6.106;2022-08-25T00:14:50;101824.66;;;24.39;48.99
58686;BME280;44465;53.206;-6.106;2022-08-25T00:17:16;101809.78;;;24.32;49.12
58686;BME280;44465;53.206;-6.106;2022-08-25T00:19:41;101823.84;;;24.37;49.09
58686;BME280;44465;53.206;-6.106;2022-08-25T00:22:07;101820.22;;;24.38;49.07
58686;BME280;44465;53.206;-6.106;2022-08-25T00:24:32;101808.66;;;24.36;48.96
58686;BME280;44465;53.206;-6.106;2022-08-25T00:26:58;101814.84;;;24.38;48.95
58686;BME280;44465;53.206;-6.106;2022-08-25T00:29:25;101817.69;;;24.35;49.41
58686;BME280;44465;53.206;-6.106;2022-08-25T00:31:51;101814.97;;;24.35;49.49
58686;BME280;44465;53.206;-6.106;2022-08-25T00:34:21;101818.81;;;24.31;49.38
58686;BME280;44465;53.206;-6.106;2022-08-25T00:36:47;101828.44;;;24.35;49.26
58686;BME280;44465;53.206;-6.106;2022-08-25T00:39:16;101816.38;;;24.26;49.46
58686;BME280;44465;53.206;-6.106;2022-08-25T00:41:42;101833.03;;;24.33;49.63
58686;BME280;44465;53.206;-6.106;2022-08-25T00:44:10;101815.41;;;24.27;49.85
58686;BME280;44465;53.206;-6.106;2022-08-25T00:46:43;101824.97;;;24.33;49.33
58686;BME280;44465;53.206;-6.106;2022-08-25T00:49:15;101831.13;;;24.35;49.35
58686;BME280;44465;53.206;-6.106;2022-08-25T00:51:47;101830.34;;;24.33;49.53
58686;BME280;44465;53.206;-6.106;2022-08-25T00:54:18;101832.09;;;24.34;49.43
58686;BME280;44465;53.206;-6.106;2022-08-25T00:56:45;101825.84;;;24.34;49.43
58686;BME280;44465;53.206;-6.106;2022-08-25T00:59:12;101833.13;;;24.31;49.61
58686;BME280;44465;53.206;-6.106;2022-08-25T01:01:38;101840.94;;;24.36;49.02
58686;BME280;44465;53.206;-6.106;2022-08-25T01:04:04;101841.91;;;24.35;49.22
58686;BME280;44465;53.206;-6.106;2022-08-25T01:06:33;101837.47;;;24.34;49.34
58686;BME280;44465;53.206;-6.106;2022-08-25T01:09:01;101847.28;;;24.35;49.51
58686;BME280;44465;53.206;-6.106;2022-08-25T01:11:26;101841.84;;;24.37;49.20
58686;BME280;44465;53.206;-6.106;2022-08-25T01:13:53;101852.63;;;24.37;49.40
58686;BME280;44465;53.206;-6.106;2022-08-25T01:16:20;101842.69;;;24.37;49.26
58686;BME280;44465;53.206;-6.106;2022-08-25T01:21:12;101847.47;;;24.32;49.64
58686;BME280;44465;53.206;-6.106;2022-08-25T01:23:38;101841.19;;;24.31;49.64
58686;BME280;44465;53.206;-6.106;2022-08-25T01:26:11;101844.78;;;24.32;49.71
58686;BME280;44465;53.206;-6.106;2022-08-25T01:28:38;101843.81;;;24.33;49.71
58686;BME280;44465;53.206;-6.106;2022-08-25T01:31:25;101843.97;;;24.30;50.23
58686;BME280;44465;53.206;-6.106;2022-08-25T01:33:51;101837.66;;;24.31;49.85
58686;BME280;44465;53.206;-6.106;2022-08-25T01:36:18;101840.25;;;24.32;49.80
58686;BME280;44465;53.206;-6.106;2022-08-25T01:38:44;101831.47;;;24.29;49.65
58686;BME280;44465;53.206;-6.106;2022-08-25T01:41:09;101841.09;;;24.33;49.71
58686;BME280;44465;53.206;-6.106;2022-08-25T01:43:36;101836.72;;;24.32;49.60
58686;BME280;44465;53.206;-6.106;2022-08-25T01:46:02;101842.25;;;24.29;49.83
58686;BME280;44465;53.206;-6.106;2022-08-25T01:48:28;101840.34;;;24.31;49.96
58686;BME280;44465;53.206;-6.106;2022-08-25T01:50:53;101846.69;;;24.30;49.70
58686;BME280;44465;53.206;-6.106;2022-08-25T01:53:27;101836.06;;;24.27;49.46
58686;BME280;44465;53.206;-6.106;2022-08-25T01:55:54;101829.72;;;24.28;49.75
58686;BME280;44465;53.206;-6.106;2022-08-25T01:58:29;101843.81;;;24.33;49.98
58686;BME280;44465;53.206;-6.106;2022-08-25T02:01:06;101834.78;;;24.34;49.79
58686;BME280;44465;53.206;-6.106;2022-08-25T02:03:36;101844.78;;;24.32;49.87
58686;BME280;44465;53.206;-6.106;2022-08-25T02:06:03;101843.91;;;24.31;49.76
58686;BME280;44465;53.206;-6.106;2022-08-25T02:08:28;101846.69;;;24.30;49.49
58686;BME280;44465;53.206;-6.106;2022-08-25T02:10:54;101839.56;;;24.29;50.10
58686;BME280;44465;53.206;-6.106;2022-08-25T02:13:20;101843.44;;;24.23;50.18
58686;BME280;44465;53.206;-6.106;2022-08-25T02:15:49;101848.72;;;24.25;50.33
58686;BME280;44465;53.206;-6.106;2022-08-25T02:18:16;101843.53;;;24.22;50.21
58686;BME280;44465;53.206;-6.106;2022-08-25T02:20:43;101848.56;;;24.28;50.22
58686;BME280;44465;53.206;-6.106;2022-08-25T02:23:09;101851.25;;;24.28;50.09
58686;BME280;44465;53.206;-6.106;2022-08-25T02:25:36;101850.31;;;24.29;50.08
58686;BME280;44465;53.206;-6.106;2022-08-25T02:28:02;101850.47;;;24.26;50.02
58686;BME280;44465;53.206;-6.106;2022-08-25T02:30:28;101856.56;;;24.29;49.74
58686;BME280;44465;53.206;-6.106;2022-08-25T02:32:54;101851.19;;;24.29;50.14
58686;BME280;44465;53.206;-6.106;2022-08-25T02:35:19;101847.94;;;24.23;49.89
58686;BME280;44465;53.206;-6.106;2022-08-25T02:37:45;101859.25;;;24.29;50.02
58686;BME280;44465;53.206;-6.106;2022-08-25T02:40:11;101845.97;;;24.26;49.80
58686;BME280;44465;53.206;-6.106;2022-08-25T02:42:36;101858.31;;;24.30;49.67
58686;BME280;44465;53.206;-6.106;2022-08-25T02:45:03;101861.09;;;24.29;49.91
58686;BME280;44465;53.206;-6.106;2022-08-25T02:47:28;101851.25;;;24.28;50.14
58686;BME280;44465;53.206;-6.106;2022-08-25T02:49:56;101858.47;;;24.27;49.76
58686;BME280;44465;53.206;-6.106;2022-08-25T02:52:21;101859.50;;;24.25;50.11
58686;BME280;44465;53.206;-6.106;2022-08-25T02:54:47;101848.81;;;24.23;50.33
58686;BME280;44465;53.206;-6.106;2022-08-25T02:57:12;101848.72;;;24.25;50.06
58686;BME280;44465;53.206;-6.106;2022-08-25T02:59:40;101854.09;;;24.25;50.28
58686;BME280;44465;53.206;-6.106;2022-08-25T03:02:05;101852.56;;;24.21;50.20
58686;BME280;44465;53.206;-6.106;2022-08-25T03:04:31;101856.19;;;24.20;50.07
58686;BME280;44465;53.206;-6.106;2022-08-25T03:06:57;101860.44;;;24.24;50.04
58686;BME280;44465;53.206;-6.106;2022-08-25T03:09:23;101852.59;;;24.19;49.96
58686;BME280;44465;53.206;-6.106;2022-08-25T03:11:50;101856.91;;;24.23;49.84
58686;BME280;44465;53.206;-6.106;2022-08-25T03:14:15;101856.00;;;24.23;49.87
58686;BME280;44465;53.206;-6.106;2022-08-25T03:16:41;101853.31;;;24.23;50.01
58686;BME280;44465;53.206;-6.106;2022-08-25T03:19:07;101853.31;;;24.23;49.93
58686;BME280;44465;53.206;-6.106;2022-08-25T03:21:32;101854.28;;;24.22;49.99
58686;BME280;44465;53.206;-6.106;2022-08-25T03:23:58;101857.69;;;24.25;49.77
58686;BME280;44465;53.206;-6.106;2022-08-25T03:26:24;101845.34;;;24.21;49.94
58686;BME280;44465;53.206;-6.106;2022-08-25T03:29:08;101850.63;;;24.23;49.92
58686;BME280;44465;53.206;-6.106;2022-08-25T03:31:35;101847.16;;;24.21;49.96
58686;BME280;44465;53.206;-6.106;2022-08-25T03:34:01;101845.41;;;24.20;50.08
58686;BME280;44465;53.206;-6.106;2022-08-25T03:36:27;101847.16;;;24.21;50.03
58686;BME280;44465;53.206;-6.106;2022-08-25T03:38:53;101845.41;;;24.20;50.20
58686;BME280;44465;53.206;-6.106;2022-08-25T03:41:24;101850.72;;;24.21;50.31
58686;BME280;44465;53.206;-6.106;2022-08-25T03:43:50;101844.53;;;24.19;50.17
58686;BME280;44465;53.206;-6.106;2022-08-25T03:46:22;101838.38;;;24.17;50.18
58686;BME280;44465;53.206;-6.106;2022-08-25T03:48:49;101842.72;;;24.20;50.34
58686;BME280;44465;53.206;-6.106;2022-08-25T03:51:24;101837.41;;;24.18;50.24
58686;BME280;44465;53.206;-6.106;2022-08-25T03:53:50;101825.94;;;24.14;50.10
58686;BME280;44465;53.206;-6.106;2022-08-25T03:56:16;101826.72;;;24.16;50.33
58686;BME280;44465;53.206;-6.106;2022-08-25T03:58:41;101831.16;;;24.17;50.39
58686;BME280;44465;53.206;-6.106;2022-08-25T04:01:07;101828.38;;;24.19;50.12
58686;BME280;44465;53.206;-6.106;2022-08-25T04:03:33;101820.41;;;24.17;49.84
58686;BME280;44465;53.206;-6.106;2022-08-25T04:06:00;101831.03;;;24.21;50.24
58686;BME280;44465;53.206;-6.106;2022-08-25T04:08:26;101829.28;;;24.20;50.28
58686;BME280;44465;53.206;-6.106;2022-08-25T04:10:51;101824.84;;;24.19;50.07
58686;BME280;44465;53.206;-6.106;2022-08-25T04:13:17;101817.81;;;24.16;50.24
58686;BME280;44465;53.206;-6.106;2022-08-25T04:15:43;101810.75;;;24.13;50.06
58686;BME280;44465;53.206;-6.106;2022-08-25T04:18:09;101818.81;;;24.13;49.88
58686;BME280;44465;53.206;-6.106;2022-08-25T04:20:36;101815.13;;;24.16;50.45
58686;BME280;44465;53.206;-6.106;2022-08-25T04:23:02;101801.25;;;24.06;50.37
58686;BME280;44465;53.206;-6.106;2022-08-25T04:25:28;101816.06;;;24.15;50.38
58686;BME280;44465;53.206;-6.106;2022-08-25T04:27:54;101816.06;;;24.15;50.35
58686;BME280;44465;53.206;-6.106;2022-08-25T04:30:20;101819.75;;;24.12;50.34
58686;BME280;44465;53.206;-6.106;2022-08-25T04:32:47;101820.56;;;24.14;50.30
58686;BME280;44465;53.206;-6.106;2022-08-25T04:35:14;101825.94;;;24.14;50.24
58686;BME280;44465;53.206;-6.106;2022-08-25T04:37:39;101819.69;;;24.14;50.24
58686;BME280;44465;53.206;-6.106;2022-08-25T04:40:06;101812.91;;;24.07;50.37
58686;BME280;44465;53.206;-6.106;2022-08-25T04:42:32;101820.75;;;24.11;50.22
58686;BME280;44465;53.206;-6.106;2022-08-25T04:44:58;101830.47;;;24.14;50.14
58686;BME280;44465;53.206;-6.106;2022-08-25T04:47:26;101822.44;;;24.12;50.17
58686;BME280;44465;53.206;-6.106;2022-08-25T04:49:52;101837.66;;;24.13;50.18
58686;BME280;44465;53.206;-6.106;2022-08-25T04:52:17;101830.63;;;24.11;50.40
58686;BME280;44465;53.206;-6.106;2022-08-25T04:54:43;101831.31;;;24.14;50.39
58686;BME280;44465;53.206;-6.106;2022-08-25T04:57:09;101836.72;;;24.14;50.71
58686;BME280;44465;53.206;-6.106;2022-08-25T04:59:35;101823.34;;;24.13;50.18
58686;BME280;44465;53.206;-6.106;2022-08-25T05:02:01;101835.91;;;24.12;50.11
58686;BME280;44465;53.206;-6.106;2022-08-25T05:04:27;101831.66;;;24.08;50.43
58686;BME280;44465;53.206;-6.106;2022-08-25T05:06:53;101831.50;;;24.11;50.30
58686;BME280;44465;53.206;-6.106;2022-08-25T05:09:19;101829.75;;;24.10;50.41
58686;BME280;44465;53.206;-6.106;2022-08-25T05:11:44;101829.91;;;24.07;50.27
58686;BME280;44465;53.206;-6.106;2022-08-25T05:14:10;101828.00;;;24.09;50.26
58686;BME280;44465;53.206;-6.106;2022-08-25T05:16:38;101839.72;;;24.08;50.35
58686;BME280;44465;53.206;-6.106;2022-08-25T05:19:04;101843.28;;;24.09;50.51
58686;BME280;44465;53.206;-6.106;2022-08-25T05:21:30;101838.84;;;24.08;50.27
58686;BME280;44465;53.206;-6.106;2022-08-25T05:23:56;101840.69;;;24.07;50.36
58686;BME280;44465;53.206;-6.106;2022-08-25T05:26:24;101838.84;;;24.08;50.49
58686;BME280;44465;53.206;-6.106;2022-08-25T05:28:51;101841.53;;;24.08;50.20
58686;BME280;44465;53.206;-6.106;2022-08-25T05:31:18;101846.91;;;24.08;50.27
58686;BME280;44465;53.206;-6.106;2022-08-25T05:33:44;101829.13;;;24.05;50.21
58686;BME280;44465;53.206;-6.106;2022-08-25T05:36:11;101843.38;;;24.07;50.21
58686;BME280;44465;53.206;-6.106;2022-08-25T05:38:37;101830.47;;;23.96;50.34
58686;BME280;44465;53.206;-6.106;2022-08-25T05:41:10;101834.66;;;24.02;50.37
58686;BME280;44465;53.206;-6.106;2022-08-25T05:43:39;101833.69;;;24.03;50.62
58686;BME280;44465;53.206;-6.106;2022-08-25T05:46:04;101832.34;;;23.94;50.37
58686;BME280;44465;53.206;-6.106;2022-08-25T05:48:30;101836.56;;;24.00;50.34
58686;BME280;44465;53.206;-6.106;2022-08-25T05:50:59;101828.50;;;24.00;50.13
58686;BME280;44465;53.206;-6.106;2022-08-25T05:53:26;101830.25;;;24.01;50.02
58686;BME280;44465;53.206;-6.106;2022-08-25T05:55:53;101835.63;;;24.01;50.34
58686;BME280;44465;53.206;-6.106;2022-08-25T05:58:19;101831.34;;;23.97;50.43
58686;BME280;44465;53.206;-6.106;2022-08-25T06:00:45;101836.63;;;23.98;50.54
58686;BME280;44465;53.206;-6.106;2022-08-25T06:03:11;101833.88;;;24.00;50.16
58686;BME280;44465;53.206;-6.106;2022-08-25T06:05:37;101841.00;;;24.01;50.20
58686;BME280;44465;53.206;-6.106;2022-08-25T06:08:03;101826.97;;;23.94;50.15
58686;BME280;44465;53.206;-6.106;2022-08-25T06:10:28;101844.66;;;24.00;50.26
58686;BME280;44465;53.206;-6.106;2022-08-25T06:12:55;101837.53;;;23.99;50.24
58686;BME280;44465;53.206;-6.106;2022-08-25T06:15:22;101840.03;;;24.02;50.31
58686;BME280;44465;53.206;-6.106;2022-08-25T06:17:49;101835.63;;;24.01;50.32
58686;BME280;44465;53.206;-6.106;2022-08-25T06:20:18;101842.72;;;24.02;50.19
58686;BME280;44465;53.206;-6.106;2022-08-25T06:22:44;101842.72;;;24.02;50.06
58686;BME280;44465;53.206;-6.106;2022-08-25T06:25:11;101854.47;;;24.01;50.11
58686;BME280;44465;53.206;-6.106;2022-08-25T06:27:38;101849.06;;;24.01;50.39
58686;BME280;44465;53.206;-6.106;2022-08-25T06:30:06;101846.81;;;23.92;50.33
58686;BME280;44465;53.206;-6.106;2022-08-25T06:32:34;101851.13;;;23.96;50.60
58686;BME280;44465;53.206;-6.106;2022-08-25T06:35:09;101849.31;;;23.96;50.27
58686;BME280;44465;53.206;-6.106;2022-08-25T06:37:36;101851.91;;;23.98;50.30
58686;BME280;44465;53.206;-6.106;2022-08-25T06:40:03;101850.19;;;23.97;50.54
58686;BME280;44465;53.206;-6.106;2022-08-25T06:42:29;101847.47;;;23.97;50.54
58686;BME280;44465;53.206;-6.106;2022-08-25T06:44:54;101853.66;;;23.99;50.18
58686;BME280;44465;53.206;-6.106;2022-08-25T06:47:20;101853.66;;;23.99;50.47
58686;BME280;44465;53.206;-6.106;2022-08-25T06:49:45;101858.25;;;23.97;50.52
58686;BME280;44465;53.206;-6.106;2022-08-25T06:52:12;101857.22;;;23.99;50.24
58686;BME280;44465;53.206;-6.106;2022-08-25T06:54:38;101863.63;;;23.97;50.45
58686;BME280;44465;53.206;-6.106;2022-08-25T06:57:05;101863.53;;;23.98;50.39
58686;BME280;44465;53.206;-6.106;2022-08-25T06:59:32;101862.69;;;23.98;50.30
58686;BME280;44465;53.206;-6.106;2022-08-25T07:01:58;101852.19;;;23.92;50.20
58686;BME280;44465;53.206;-6.106;2022-08-25T07:04:23;101868.91;;;23.98;50.68
58686;BME280;44465;53.206;-6.106;2022-08-25T07:06:49;101868.84;;;24.00;50.18
58686;BME280;44465;53.206;-6.106;2022-08-25T07:09:15;101869.81;;;23.99;50.31
58686;BME280;44465;53.206;-6.106;2022-08-25T07:11:42;101867.97;;;23.99;50.03
58686;BME280;44465;53.206;-6.106;2022-08-25T07:14:10;101892.13;;;24.01;50.47
58686;BME280;44465;53.206;-6.106;2022-08-25T07:16:37;101882.31;;;24.00;50.27
58686;BME280;44465;53.206;-6.106;2022-08-25T07:19:03;101885.16;;;23.97;50.33
58686;BME280;44465;53.206;-6.106;2022-08-25T07:21:31;101883.31;;;23.97;50.49
58686;BME280;44465;53.206;-6.106;2022-08-25T07:23:58;101886.91;;;23.98;50.49
58686;BME280;44465;53.206;-6.106;2022-08-25T07:26:27;101898.47;;;24.00;50.24
58686;BME280;44465;53.206;-6.106;2022-08-25T07:28:53;101886.81;;;23.99;50.55
58686;BME280;44465;53.206;-6.106;2022-08-25T07:31:19;101891.47;;;23.96;50.22
58686;BME280;44465;53.206;-6.106;2022-08-25T07:33:45;101886.81;;;23.99;50.33
58686;BME280;44465;53.206;-6.106;2022-08-25T07:36:29;101885.94;;;23.99;50.37
58686;BME280;44465;53.206;-6.106;2022-08-25T07:38:56;101880.72;;;23.96;50.03
58686;BME280;44465;53.206;-6.106;2022-08-25T07:41:22;101884.19;;;23.98;49.91
58686;BME280;44465;53.206;-6.106;2022-08-25T07:43:48;101886.81;;;23.99;50.06
58686;BME280;44465;53.206;-6.106;2022-08-25T07:46:13;101896.72;;;23.99;50.03
58686;BME280;44465;53.206;-6.106;2022-08-25T07:48:39;101898.72;;;23.94;50.17
58686;BME280;44465;53.206;-6.106;2022-08-25T07:51:11;101911.09;;;23.98;49.96
58686;BME280;44465;53.206;-6.106;2022-08-25T07:53:39;101924.47;;;23.99;50.05
58686;BME280;44465;53.206;-6.106;2022-08-25T07:56:12;101925.50;;;23.97;49.98
58686;BME280;44465;53.206;-6.106;2022-08-25T07:58:39;101925.50;;;23.97;50.13
58686;BME280;44465;53.206;-6.106;2022-08-25T08:01:06;101920.22;;;23.94;49.91
58686;BME280;44465;53.206;-6.106;2022-08-25T08:03:31;101919.25;;;23.96;50.22
58686;BME280;44465;53.206;-6.106;2022-08-25T08:05:59;101925.63;;;23.94;50.26
58686;BME280;44465;53.206;-6.106;2022-08-25T08:08:25;101920.22;;;23.94;50.23
58686;BME280;44465;53.206;-6.106;2022-08-25T08:10:51;101922.91;;;23.94;50.30
58686;BME280;44465;53.206;-6.106;2022-08-25T08:13:17;101917.72;;;23.91;50.15
58686;BME280;44465;53.206;-6.106;2022-08-25T08:15:42;101935.84;;;23.68;47.20
58686;BME280;44465;53.206;-6.106;2022-08-25T08:18:08;101946.63;;;23.49;47.19
58686;BME280;44465;53.206;-6.106;2022-08-25T08:20:35;101942.53;;;23.59;48.15
58686;BME280;44465;53.206;-6.106;2022-08-25T08:23:01;101946.44;;;23.71;48.62
58686;BME280;44465;53.206;-6.106;2022-08-25T08:25:26;101945.28;;;23.77;48.70
58686;BME280;44465;53.206;-6.106;2022-08-25T08:27:52;101937.16;;;23.78;49.07
58686;BME280;44465;53.206;-6.106;2022-08-25T08:30:18;101936.22;;;23.79;49.28
58686;BME280;44465;53.206;-6.106;2022-08-25T08:32:43;101937.88;;;23.82;49.20
58686;BME280;44465;53.206;-6.106;2022-08-25T08:35:09;101936.13;;;23.81;49.51
58686;BME280;44465;53.206;-6.106;2022-08-25T08:37:35;101933.34;;;23.82;49.45
58686;BME280;44465;53.206;-6.106;2022-08-25T08:40:07;101936.94;;;23.83;49.67
58686;BME280;44465;53.206;-6.106;2022-08-25T08:43:02;101940.66;;;23.80;49.52
58686;BME280;44465;53.206;-6.106;2022-08-25T08:45:37;101932.56;;;23.80;49.84
58686;BME280;44465;53.206;-6.106;2022-08-25T08:56:06;101940.47;;;23.83;49.82
58686;BME280;44465;53.206;-6.106;2022-08-25T08:58:45;101933.13;;;23.87;49.83
58686;BME280;44465;53.206;-6.106;2022-08-25T09:01:16;101937.41;;;23.91;49.78
58686;BME280;44465;53.206;-6.106;2022-08-25T09:03:47;101938.34;;;23.90;49.82
58686;BME280;44465;53.206;-6.106;2022-08-25T09:06:23;101945.56;;;23.90;49.99
58686;BME280;44465;53.206;-6.106;2022-08-25T09:08:54;101938.44;;;23.89;50.24
58686;BME280;44465;53.206;-6.106;2022-08-25T09:14:16;101942.78;;;23.91;50.03
58686;BME280;44465;53.206;-6.106;2022-08-25T09:17:34;101936.56;;;23.91;50.02
58686;BME280;44465;53.206;-6.106;2022-08-25T09:20:06;101950.00;;;23.91;50.36
58686;BME280;44465;53.206;-6.106;2022-08-25T09:22:58;101953.63;;;23.90;49.96
58686;BME280;44465;53.206;-6.106;2022-08-25T09:33:06;101948.31;;;23.88;50.05
58686;BME280;44465;53.206;-6.106;2022-08-25T09:35:40;101934.38;;;23.80;50.24
58686;BME280;44465;53.206;-6.106;2022-08-25T09:38:09;101944.75;;;23.88;50.33
58686;BME280;44465;53.206;-6.106;2022-08-25T09:40:39;101950.78;;;23.93;50.38
58686;BME280;44465;53.206;-6.106;2022-08-25T09:43:40;101944.63;;;23.91;49.93
58686;BME280;44465;53.206;-6.106;2022-08-25T09:46:13;101946.28;;;23.93;50.19
58686;BME280;44465;53.206;-6.106;2022-08-25T09:48:51;101949.91;;;23.92;50.12
58686;BME280;44465;53.206;-6.106;2022-08-25T09:51:32;101940.91;;;23.93;50.00
58686;BME280;44465;53.206;-6.106;2022-08-25T09:56:26;101939.91;;;23.96;50.24
58686;BME280;44465;53.206;-6.106;2022-08-25T09:58:53;101947.13;;;23.95;50.33
58686;BME280;44465;53.206;-6.106;2022-08-25T10:01:21;101941.66;;;23.97;50.37
58686;BME280;44465;53.206;-6.106;2022-08-25T10:04:02;101939.91;;;23.96;50.16
58686;BME280;44465;53.206;-6.106;2022-08-25T10:06:55;101938.22;;;23.93;50.11
58686;BME280;44465;53.206;-6.106;2022-08-25T10:09:40;101940.00;;;23.93;50.30
58686;BME280;44465;53.206;-6.106;2022-08-25T10:12:23;101944.44;;;23.94;50.26
58686;BME280;44465;53.206;-6.106;2022-08-25T10:14:50;101949.91;;;23.92;50.12
58686;BME280;44465;53.206;-6.106;2022-08-25T10:17:29;101943.53;;;23.95;49.99
58686;BME280;44465;53.206;-6.106;2022-08-25T10:22:45;101933.69;;;23.94;50.25
58686;BME280;44465;53.206;-6.106;2022-08-25T10:25:23;101937.22;;;23.96;50.23
58686;BME280;44465;53.206;-6.106;2022-08-25T10:31:08;101932.78;;;23.95;50.15
58686;BME280;44465;53.206;-6.106;2022-08-25T10:36:16;101916.63;;;23.95;49.78
58686;BME280;44465;53.206;-6.106;2022-08-25T10:38:48;101924.56;;;23.98;50.14
58686;BME280;44465;53.206;-6.106;2022-08-25T10:44:17;101913.44;;;23.86;50.35
58686;BME280;44465;53.206;-6.106;2022-08-25T10:47:41;101912.34;;;23.91;50.27
58686;BME280;44465;53.206;-6.106;2022-08-25T10:50:31;101903.69;;;23.84;50.44
58686;BME280;44465;53.206;-6.106;2022-08-25T10:53:10;101911.25;;;23.95;50.15
58686;BME280;44465;53.206;-6.106;2022-08-25T10:56:14;101900.59;;;23.92;50.42
58686;BME280;44465;53.206;-6.106;2022-08-25T11:04:03;101895.22;;;23.92;50.50
58686;BME280;44465;53.206;-6.106;2022-08-25T11:06:38;101890.72;;;23.92;50.27
58686;BME280;44465;53.206;-6.106;2022-08-25T11:09:09;101894.47;;;23.90;50.17
58686;BME280;44465;53.206;-6.106;2022-08-25T11:11:41;101898.72;;;23.94;50.18
58686;BME280;44465;53.206;-6.106;2022-08-25T11:14:23;101906.75;;;23.95;50.37
58686;BME280;44465;53.206;-6.106;2022-08-25T11:17:12;101903.28;;;23.92;50.10
58686;BME280;44465;53.206;-6.106;2022-08-25T11:19:47;101912.06;;;23.97;50.07
58686;BME280;44465;53.206;-6.106;2022-08-25T11:27:27;101902.09;;;23.99;49.96
58686;BME280;44465;53.206;-6.106;2022-08-25T11:30:00;101903.84;;;24.00;50.38
58686;BME280;44465;53.206;-6.106;2022-08-25T11:32:27;101891.47;;;23.96;50.16
58686;BME280;44465;53.206;-6.106;2022-08-25T11:35:00;101893.22;;;23.97;50.28
58686;BME280;44465;53.206;-6.106;2022-08-25T11:37:28;101883.16;;;24.00;50.06
58686;BME280;44465;53.206;-6.106;2022-08-25T11:45:52;101887.84;;;23.97;49.84
58686;BME280;44465;53.206;-6.106;2022-08-25T11:51:26;101903.84;;;24.00;49.98
58686;BME280;44465;53.206;-6.106;2022-08-25T11:56:52;101896.72;;;23.99;50.12
58686;BME280;44465;53.206;-6.106;2022-08-25T12:02:33;101897.41;;;24.03;50.12
58686;BME280;44465;53.206;-6.106;2022-08-25T12:05:03;101883.97;;;24.03;50.14
58686;BME280;44465;53.206;-6.106;2022-08-25T12:07:59;101897.41;;;24.03;50.33
58686;BME280;44465;53.206;-6.106;2022-08-25T12:11:01;101896.47;;;24.04;50.11
58686;BME280;44465;53.206;-6.106;2022-08-25T12:13:47;101894.72;;;24.03;49.81
58686;BME280;44465;53.206;-6.106;2022-08-25T12:33:19;101881.03;;;24.07;49.89
58686;BME280;44465;53.206;-6.106;2022-08-25T12:35:30;101877.50;;;24.07;49.79
58686;BME280;44465;53.206;-6.106;2022-08-25T12:38:17;101880.38;;;24.02;49.58
58686;BME280;44465;53.206;-6.106;2022-08-25T12:41:08;101885.47;;;24.08;49.73
58686;BME280;44465;53.206;-6.106;2022-08-25T12:43:45;101879.16;;;24.09;49.84
58686;BME280;44465;53.206;-6.106;2022-08-25T12:49:09;101887.03;;;24.12;49.88
58686;BME280;44465;53.206;-6.106;2022-08-25T12:54:22;101876.47;;;24.09;49.80
58686;BME280;44465;53.206;-6.106;2022-08-25T12:56:56;101871.22;;;24.06;49.59
58686;BME280;44465;53.206;-6.106;2022-08-25T13:11:04;101875.97;;;24.01;49.42
58686;BME280;44465;53.206;-6.106;2022-08-25T13:16:24;101876.47;;;24.09;49.71
58686;BME280;44465;53.206;-6.106;2022-08-25T13:18:52;101879.84;;;24.13;49.65
58686;BME280;44465;53.206;-6.106;2022-08-25T13:21:29;101863.16;;;24.06;49.91
58686;BME280;44465;53.206;-6.106;2022-08-25T13:23:58;101871.69;;;24.14;49.67
58686;BME280;44465;53.206;-6.106;2022-08-25T13:26:33;101869.19;;;24.11;49.66
58686;BME280;44465;53.206;-6.106;2022-08-25T13:29:12;101871.53;;;24.17;49.56
58686;BME280;44465;53.206;-6.106;2022-08-25T13:34:20;101874.13;;;24.19;49.45
58686;BME280;44465;53.206;-6.106;2022-08-25T13:36:47;101868.06;;;24.15;49.53
58686;BME280;44465;53.206;-6.106;2022-08-25T13:39:33;101868.84;;;24.17;49.33
58686;BME280;44465;53.206;-6.106;2022-08-25T13:41:59;101866.72;;;24.07;49.65
58686;BME280;44465;53.206;-6.106;2022-08-25T13:44:28;101855.88;;;24.08;49.48
58686;BME280;44465;53.206;-6.106;2022-08-25T13:49:39;101864.41;;;24.16;49.32
58686;BME280;44465;53.206;-6.106;2022-08-25T13:52:05;101867.09;;;24.16;49.42
58686;BME280;44465;53.206;-6.106;2022-08-25T13:54:39;101854.59;;;24.15;49.38
58686;BME280;44465;53.206;-6.106;2022-08-25T13:57:21;101859.69;;;24.22;49.17
58686;BME280;44465;53.206;-6.106;2022-08-25T13:59:53;101854.28;;;24.22;49.33
58686;BME280;44465;53.206;-6.106;2022-08-25T14:02:41;101859.69;;;24.22;49.20
58686;BME280;44465;53.206;-6.106;2022-08-25T14:05:07;101852.38;;;24.24;49.15
58686;BME280;44465;53.206;-6.106;2022-08-25T14:07:33;101864.03;;;24.24;49.22
58686;BME280;44465;53.206;-6.106;2022-08-25T14:10:28;101843.69;;;24.19;49.32
58686;BME280;44465;53.206;-6.106;2022-08-25T14:13:15;101852.38;;;24.24;49.35
58686;BME280;44465;53.206;-6.106;2022-08-25T14:15:44;101853.16;;;24.26;49.19
58686;BME280;44465;53.206;-6.106;2022-08-25T14:18:17;101844.28;;;24.24;49.02
58686;BME280;44465;53.206;-6.106;2022-08-25T14:20:48;101855.94;;;24.24;49.09
58686;BME280;44465;53.206;-6.106;2022-08-25T14:23:18;101845.25;;;24.23;49.21
58686;BME280;44465;53.206;-6.106;2022-08-25T14:25:44;101850.63;;;24.23;48.90
58686;BME280;44465;53.206;-6.106;2022-08-25T14:28:12;101847.88;;;24.24;48.86
58686;BME280;44465;53.206;-6.106;2022-08-25T14:30:49;101846.97;;;24.24;49.01
58686;BME280;44465;53.206;-6.106;2022-08-25T14:33:17;101843.53;;;24.22;49.09
58686;BME280;44465;53.206;-6.106;2022-08-25T14:35:48;101850.47;;;24.26;49.02